createdAt,value
2022-08-17T00:01:52.136Z,5.30
2022-08-17T00:04:19.813Z,4.80
2022-08-17T00:06:49.124Z,4.80
2022-08-17T00:09:18.363Z,4.88
2022-08-17T00:12:03.932Z,4.97
2022-08-17T00:14:36.106Z,4.40
2022-08-17T00:17:04.644Z,4.72
2022-08-17T00:19:32.733Z,4.60
2022-08-17T00:22:33.777Z,4.82
2022-08-17T00:24:50.237Z,4.38
2022-08-17T00:27:17.428Z,4.30
2022-08-17T00:29:45.856Z,3.97
2022-08-17T00:33:13.920Z,4.70
2022-08-17T00:35:06.092Z,4.40
2022-08-17T00:37:32.728Z,4.47
2022-08-17T00:39:59.400Z,4.30
2022-08-17T00:42:31.153Z,4.05
2022-08-17T00:44:58.490Z,4.03
2022-08-17T00:47:25.361Z,4.20
2022-08-17T00:49:52.046Z,4.00
2022-08-17T00:52:23.116Z,4.20
2022-08-17T00:54:53.930Z,4.38
2022-08-17T00:57:25.250Z,3.85
2022-08-17T01:00:03.038Z,3.80
2022-08-17T01:02:43.142Z,3.97
2022-08-17T01:05:18.411Z,4.30
2022-08-17T01:07:47.738Z,4.35
2022-08-17T01:10:59.967Z,4.45
2022-08-17T01:13:03.899Z,4.40
2022-08-17T01:15:31.850Z,4.43
2022-08-17T01:17:58.403Z,4.50
2022-08-17T01:20:25.134Z,4.30
2022-08-17T01:22:52.409Z,4.60
2022-08-17T01:25:21.264Z,4.37
2022-08-17T01:27:49.244Z,4.45
2022-08-17T01:30:58.955Z,4.30
2022-08-17T01:33:04.326Z,4.07
2022-08-17T01:35:30.932Z,4.13
2022-08-17T01:37:57.461Z,4.20
2022-08-17T01:40:39.025Z,4.07
2022-08-17T01:43:21.606Z,4.50
2022-08-17T01:46:02.711Z,4.43
2022-08-17T01:48:33.084Z,3.97
2022-08-17T01:50:59.899Z,4.13
2022-08-17T01:53:34.880Z,4.22
2022-08-17T01:56:07.874Z,4.45
2022-08-17T01:58:36.162Z,4.40
2022-08-17T02:01:04.024Z,4.22
2022-08-17T02:03:31.915Z,4.10
2022-08-17T02:05:58.943Z,3.97
2022-08-17T02:08:39.180Z,4.30
2022-08-17T02:11:16.687Z,4.70
2022-08-17T02:13:45.213Z,4.00
2022-08-17T02:16:13.005Z,4.30
2022-08-17T02:18:40.012Z,4.53
2022-08-17T02:21:07.188Z,4.30
2022-08-17T02:23:38.586Z,4.60
2022-08-17T02:26:05.443Z,4.70
2022-08-17T02:28:32.071Z,4.30
2022-08-17T02:31:04.961Z,4.32
2022-08-17T02:34:09.527Z,4.28
2022-08-17T02:36:36.397Z,4.55
2022-08-17T02:39:06.684Z,4.70
2022-08-17T02:41:33.698Z,4.33
2022-08-17T02:44:01.257Z,4.88
2022-08-17T02:46:28.364Z,4.82
2022-08-17T02:48:55.008Z,4.10
2022-08-17T02:51:21.864Z,4.65
2022-08-17T02:53:48.450Z,4.70
2022-08-17T02:56:15.015Z,4.32
2022-08-17T02:58:41.539Z,5.05
2022-08-17T03:01:10.104Z,4.53
2022-08-17T03:03:38.358Z,4.63
2022-08-17T03:06:06.115Z,4.50
2022-08-17T03:08:32.640Z,4.40
2022-08-17T03:10:59.582Z,5.10
2022-08-17T03:13:27.495Z,4.55
2022-08-17T03:15:54.071Z,4.40
2022-08-17T03:18:25.671Z,4.33
2022-08-17T03:20:59.547Z,4.35
2022-08-17T03:23:27.527Z,4.75
2022-08-17T03:25:56.436Z,4.93
2022-08-17T03:28:24.459Z,5.15
2022-08-17T03:30:51.669Z,4.60
2022-08-17T03:33:19.457Z,4.60
2022-08-17T03:35:46.035Z,4.47
2022-08-17T03:38:15.145Z,4.40
2022-08-17T03:40:56.753Z,4.72
2022-08-17T03:43:30.074Z,4.90
2022-08-17T03:46:28.202Z,4.93
2022-08-17T03:49:23.901Z,4.90
2022-08-17T03:52:09.333Z,4.50
2022-08-17T03:54:54.124Z,4.68
2022-08-17T03:57:20.688Z,4.53
2022-08-17T03:59:47.686Z,4.80
2022-08-17T04:02:21.652Z,4.55
2022-08-17T04:04:50.884Z,4.72
2022-08-17T04:07:19.359Z,4.43
2022-08-17T04:09:45.905Z,4.57
2022-08-17T04:12:16.152Z,4.57
2022-08-17T04:14:53.540Z,5.18
2022-08-17T04:17:27.125Z,4.00
2022-08-17T04:19:55.447Z,4.40
2022-08-17T04:22:33.005Z,4.23
2022-08-17T04:25:32.218Z,4.50
2022-08-17T04:28:00.464Z,4.80
2022-08-17T04:30:29.896Z,4.20
2022-08-17T04:33:05.011Z,4.38
2022-08-17T04:35:36.928Z,4.13
2022-08-17T04:38:04.151Z,4.53
2022-08-17T04:40:49.311Z,4.68
2022-08-17T04:43:18.702Z,4.28
2022-08-17T04:45:54.984Z,4.45
2022-08-17T04:48:23.624Z,4.20
2022-08-17T04:51:03.664Z,4.30
2022-08-17T04:53:30.178Z,4.22
2022-08-17T04:55:58.968Z,4.03
2022-08-17T04:58:25.491Z,4.32
2022-08-17T05:00:52.083Z,4.40
2022-08-17T05:03:18.951Z,3.80
2022-08-17T05:05:49.715Z,3.92
2022-08-17T05:08:18.983Z,4.05
2022-08-17T05:10:46.876Z,3.60
2022-08-17T05:13:18.341Z,3.40
2022-08-17T05:15:47.768Z,3.13
2022-08-17T05:18:14.985Z,3.60
2022-08-17T05:20:41.769Z,3.55
2022-08-17T05:23:12.807Z,3.83
2022-08-17T05:25:42.085Z,3.80
2022-08-17T05:28:14.933Z,3.57
2022-08-17T05:30:43.968Z,3.72
2022-08-17T05:33:19.970Z,3.58
2022-08-17T05:35:48.709Z,3.67
2022-08-17T05:38:17.109Z,3.72
2022-08-17T05:40:44.179Z,4.10
2022-08-17T05:43:17.994Z,3.72
2022-08-17T05:46:22.009Z,3.88
2022-08-17T05:48:51.622Z,3.72
2022-08-17T05:51:55.877Z,5.38
2022-08-17T05:54:47.125Z,3.70
2022-08-17T05:57:53.404Z,3.53
2022-08-17T06:00:26.248Z,3.67
2022-08-17T06:03:21.830Z,3.65
2022-08-17T06:06:10.231Z,3.05
2022-08-17T06:08:55.040Z,3.20
2022-08-17T06:11:39.197Z,3.38
2022-08-17T06:14:38.477Z,3.40
2022-08-17T06:17:15.544Z,3.38
2022-08-17T06:20:15.682Z,3.53
2022-08-17T06:22:56.563Z,3.57
2022-08-17T06:25:32.329Z,3.50
2022-08-17T06:28:05.830Z,3.45
2022-08-17T06:30:58.438Z,3.83
2022-08-17T06:33:32.725Z,4.25
2022-08-17T06:36:10.706Z,3.90
2022-08-17T06:38:55.653Z,3.55
2022-08-17T06:41:38.130Z,3.70
2022-08-17T06:44:43.551Z,3.63
2022-08-17T06:47:27.958Z,3.40
2022-08-17T06:50:14.552Z,3.97
2022-08-17T06:52:57.093Z,4.00
2022-08-17T06:55:37.867Z,4.32
2022-08-17T06:58:15.916Z,3.53
2022-08-17T07:00:47.262Z,3.92
2022-08-17T07:03:29.365Z,3.70
2022-08-17T07:06:08.691Z,4.00
2022-08-17T07:08:55.841Z,3.72
2022-08-17T07:11:45.268Z,4.07
2022-08-17T07:14:36.557Z,4.45
2022-08-17T07:17:46.636Z,4.30
2022-08-17T07:20:15.160Z,4.30
2022-08-17T07:22:59.338Z,4.55
2022-08-17T07:25:28.569Z,4.78
2022-08-17T07:27:59.820Z,4.55
2022-08-17T07:30:44.591Z,4.43
2022-08-17T07:33:20.351Z,4.63
2022-08-17T07:35:48.459Z,5.00
2022-08-17T07:38:25.941Z,4.78
2022-08-17T07:40:57.679Z,4.63
2022-08-17T07:43:39.502Z,4.57
2022-08-17T07:46:43.205Z,4.97
2022-08-17T07:49:09.810Z,4.25
2022-08-17T07:51:42.508Z,4.60
2022-08-17T07:54:15.153Z,4.63
2022-08-17T07:57:29.498Z,5.28
2022-08-17T08:00:03.044Z,4.70
2022-08-17T08:02:40.237Z,4.55
2022-08-17T08:05:49.268Z,5.53
2022-08-17T08:08:22.486Z,4.85
2022-08-17T08:11:03.095Z,5.40
2022-08-17T08:13:30.837Z,4.63
2022-08-17T08:16:12.806Z,5.22
2022-08-17T08:18:54.109Z,4.78
2022-08-17T08:22:02.938Z,5.30
2022-08-17T08:25:12.788Z,5.53
2022-08-17T08:28:05.636Z,5.63
2022-08-17T08:30:40.702Z,5.57
2022-08-17T08:33:21.441Z,6.00
2022-08-17T08:35:47.915Z,5.30
2022-08-17T08:38:48.374Z,6.18
2022-08-17T08:41:45.809Z,5.53
2022-08-17T08:44:58.974Z,5.72
2022-08-17T08:47:10.998Z,5.57
2022-08-17T08:50:03.538Z,6.00
2022-08-17T08:53:00.321Z,5.95
2022-08-17T08:55:49.136Z,6.00
2022-08-17T08:58:42.337Z,6.00
2022-08-17T09:01:21.183Z,6.57
2022-08-17T09:04:20.031Z,6.50
2022-08-17T09:06:56.530Z,6.25
2022-08-17T09:09:35.735Z,5.70
2022-08-17T09:12:33.941Z,5.82
2022-08-17T09:15:13.821Z,6.00
2022-08-17T09:19:02.575Z,6.28
2022-08-17T09:21:10.197Z,6.22
2022-08-17T09:23:49.449Z,6.00
2022-08-17T09:26:30.442Z,6.10
2022-08-17T09:29:02.218Z,5.90
2022-08-17T09:31:35.582Z,5.65
2022-08-17T09:34:19.177Z,5.90
2022-08-17T09:37:26.419Z,5.67
2022-08-17T09:40:15.810Z,5.40
2022-08-17T09:42:52.455Z,6.03
2022-08-17T09:45:24.812Z,6.05
2022-08-17T09:48:02.077Z,5.80
2022-08-17T09:51:03.984Z,6.20
2022-08-17T09:53:25.607Z,6.28
2022-08-17T09:56:14.311Z,6.03
2022-08-17T09:59:17.221Z,5.90
2022-08-17T10:01:51.618Z,6.47
2022-08-17T10:04:53.704Z,6.37
2022-08-17T10:08:09.292Z,6.25
2022-08-17T10:10:56.307Z,6.30
2022-08-17T10:13:32.962Z,6.68
2022-08-17T10:16:09.784Z,6.75
2022-08-17T10:18:54.931Z,6.30
2022-08-17T10:21:42.004Z,6.67
2022-08-17T10:25:20.879Z,6.85
2022-08-17T10:27:54.471Z,7.13
2022-08-17T10:30:25.877Z,6.88
2022-08-17T10:33:14.522Z,6.55
2022-08-17T10:36:10.598Z,6.57
2022-08-17T10:38:45.971Z,6.95
2022-08-17T10:41:38.222Z,6.75
2022-08-17T10:44:37.031Z,7.28
2022-08-17T10:47:11.802Z,7.03
2022-08-17T10:49:47.554Z,8.20
2022-08-17T10:52:20.258Z,8.00
2022-08-17T10:54:58.212Z,7.97
2022-08-17T10:57:34.111Z,7.72
2022-08-17T11:00:05.129Z,7.88
2022-08-17T11:02:53.266Z,7.60
2022-08-17T11:05:30.234Z,7.93
2022-08-17T11:08:08.019Z,8.15
2022-08-17T11:10:34.587Z,8.15
2022-08-17T11:13:31.311Z,8.18
2022-08-17T11:16:16.522Z,8.13
2022-08-17T11:19:10.982Z,7.93
2022-08-17T11:21:55.465Z,8.40
2022-08-17T11:24:30.601Z,7.72
2022-08-17T11:27:12.447Z,7.82
2022-08-17T11:30:03.534Z,8.07
2022-08-17T11:32:33.167Z,8.77
2022-08-17T11:35:21.475Z,9.03
2022-08-17T11:38:31.568Z,8.37
2022-08-17T11:41:27.431Z,8.30
2022-08-17T11:44:28.132Z,8.50
2022-08-17T11:47:32.153Z,8.70
2022-08-17T11:50:17.328Z,9.23
2022-08-17T11:52:49.719Z,9.40
2022-08-17T11:55:38.473Z,9.48
2022-08-17T11:58:29.479Z,9.85
2022-08-17T12:00:59.602Z,9.43
2022-08-17T12:03:32.225Z,7.78
2022-08-17T12:06:24.910Z,8.90
2022-08-17T12:09:06.852Z,9.20
2022-08-17T12:12:10.987Z,8.73
2022-08-17T12:15:05.787Z,8.50
2022-08-17T12:17:40.658Z,8.50
2022-08-17T12:20:19.003Z,8.65
2022-08-17T12:23:07.418Z,9.70
2022-08-17T12:25:43.201Z,9.13
2022-08-17T12:28:29.940Z,8.27
2022-08-17T12:31:01.796Z,8.00
2022-08-17T12:33:29.080Z,8.40
2022-08-17T12:36:05.555Z,7.07
2022-08-17T12:38:36.919Z,7.80
2022-08-17T12:41:24.821Z,7.90
2022-08-17T12:44:02.305Z,8.10
2022-08-17T12:46:44.752Z,7.97
2022-08-17T12:49:26.515Z,8.30
2022-08-17T12:52:12.522Z,8.20
2022-08-17T12:54:56.822Z,8.07
2022-08-17T12:57:27.406Z,7.80
2022-08-17T13:00:02.903Z,8.38
2022-08-17T13:02:41.374Z,8.18
2022-08-17T13:05:17.859Z,7.78
2022-08-17T13:07:46.621Z,7.57
2022-08-17T13:10:18.392Z,7.87
2022-08-17T13:12:45.175Z,8.23
2022-08-17T13:15:38.147Z,7.50
2022-08-17T13:18:45.623Z,7.80
2022-08-17T13:21:23.901Z,8.32
2022-08-17T13:24:12.008Z,7.60
2022-08-17T13:26:42.015Z,7.18
2022-08-17T13:29:16.669Z,7.80
2022-08-17T13:31:52.880Z,7.88
2022-08-17T13:34:26.885Z,8.25
2022-08-17T13:37:35.078Z,7.47
2022-08-17T13:40:10.788Z,7.85
2022-08-17T13:42:52.236Z,7.82
2022-08-17T13:45:36.203Z,6.93
2022-08-17T13:48:29.043Z,7.53
2022-08-17T13:50:55.641Z,6.70
2022-08-17T13:53:24.896Z,8.20
2022-08-17T13:56:33.430Z,7.13
2022-08-17T13:59:04.995Z,7.53
2022-08-17T14:01:36.498Z,7.55
2022-08-17T14:04:09.951Z,7.65
2022-08-17T14:06:53.013Z,7.33
2022-08-17T14:09:26.445Z,7.77
2022-08-17T14:11:54.885Z,7.38
2022-08-17T14:14:23.260Z,7.60
2022-08-17T14:16:53.505Z,7.80
2022-08-17T14:19:21.892Z,8.10
2022-08-17T14:21:49.125Z,8.10
2022-08-17T14:24:31.629Z,7.35
2022-08-17T14:27:00.441Z,8.38
2022-08-17T14:29:28.698Z,8.20
2022-08-17T14:31:56.595Z,8.15
2022-08-17T14:34:25.015Z,7.67
2022-08-17T14:36:52.446Z,7.80
2022-08-17T14:39:19.705Z,8.35
2022-08-17T14:41:46.687Z,8.80
2022-08-17T14:44:13.422Z,8.77
2022-08-17T14:46:41.765Z,7.80
2022-08-17T14:49:11.675Z,7.43
2022-08-17T14:51:44.042Z,7.00
2022-08-17T14:54:32.661Z,8.20
2022-08-17T14:57:24.785Z,8.15
2022-08-17T14:59:46.974Z,8.30
2022-08-17T15:02:13.541Z,7.97
2022-08-17T15:04:45.386Z,7.53
2022-08-17T15:07:12.409Z,9.20
2022-08-17T15:09:39.118Z,8.75
2022-08-17T15:12:06.847Z,9.45
2022-08-17T15:14:35.370Z,9.10
2022-08-17T15:17:03.710Z,8.73
2022-08-17T15:19:30.571Z,9.17
2022-08-17T15:21:57.290Z,8.32
2022-08-17T15:24:23.840Z,8.27
2022-08-17T15:26:51.445Z,8.30
2022-08-17T15:29:18.018Z,8.93
2022-08-17T15:31:44.667Z,7.23
2022-08-17T15:34:11.288Z,7.60
2022-08-17T15:36:37.944Z,8.02
2022-08-17T15:39:07.924Z,8.25
2022-08-17T15:41:34.770Z,7.40
2022-08-17T15:44:01.322Z,8.27
2022-08-17T15:46:28.347Z,7.77
2022-08-17T15:48:59.855Z,7.50
2022-08-17T15:51:31.536Z,7.78
2022-08-17T15:54:04.540Z,8.00
2022-08-17T15:56:46.230Z,7.40
2022-08-17T15:59:13.056Z,7.17
2022-08-17T16:03:04.677Z,7.50
2022-08-17T16:04:30.875Z,7.00
2022-08-17T16:06:58.728Z,7.50
2022-08-17T16:09:25.457Z,7.80
2022-08-17T16:11:55.511Z,8.00
2022-08-17T16:14:22.644Z,6.97
2022-08-17T16:16:51.814Z,6.60
2022-08-17T16:19:18.600Z,7.43
2022-08-17T16:21:45.148Z,6.75
2022-08-17T16:24:13.430Z,6.15
2022-08-17T16:26:40.493Z,7.10
2022-08-17T16:29:07.471Z,6.83
2022-08-17T16:31:34.173Z,6.93
2022-08-17T16:34:17.069Z,6.95
2022-08-17T16:36:53.685Z,6.38
2022-08-17T16:39:25.468Z,6.22
2022-08-17T16:41:52.052Z,6.13
2022-08-17T16:44:20.574Z,6.23
2022-08-17T16:46:48.339Z,5.60
2022-08-17T16:49:36.119Z,6.72
2022-08-17T16:52:05.396Z,6.53
2022-08-17T16:54:32.660Z,8.68
2022-08-17T16:56:59.374Z,7.38
2022-08-17T16:59:30.047Z,7.50
2022-08-17T17:02:04.865Z,7.68
2022-08-17T17:04:35.009Z,6.90
2022-08-17T17:07:43.187Z,6.03
2022-08-17T17:10:16.009Z,6.50
2022-08-17T17:13:02.408Z,6.07
2022-08-17T17:15:52.458Z,5.80
2022-08-17T17:18:23.025Z,6.35
2022-08-17T17:20:56.045Z,6.53
2022-08-17T17:23:47.117Z,6.35
2022-08-17T17:26:48.428Z,6.57
2022-08-17T17:29:46.520Z,6.10
2022-08-17T17:32:21.546Z,5.97
2022-08-17T17:34:54.006Z,6.55
2022-08-17T17:37:27.273Z,6.72
2022-08-17T17:39:57.815Z,6.63
2022-08-17T17:42:31.278Z,6.80
2022-08-17T17:44:57.915Z,6.85
2022-08-17T17:47:24.888Z,7.00
2022-08-17T17:49:51.691Z,7.13
2022-08-17T17:52:37.805Z,7.15
2022-08-17T17:55:07.278Z,6.97
2022-08-17T17:57:56.329Z,6.13
2022-08-17T18:00:30.374Z,8.02
2022-08-17T18:03:27.132Z,6.78
2022-08-17T18:06:31.142Z,7.15
2022-08-17T18:09:03.747Z,6.70
2022-08-17T18:11:41.789Z,6.57
2022-08-17T18:14:30.792Z,6.78
2022-08-17T18:16:59.686Z,6.47
2022-08-17T18:19:28.595Z,6.78
2022-08-17T18:22:14.133Z,6.57
2022-08-17T18:24:57.921Z,6.20
2022-08-17T18:27:24.596Z,6.45
2022-08-17T18:29:54.960Z,6.70
2022-08-17T18:32:23.537Z,6.35
2022-08-17T18:35:01.410Z,7.20
2022-08-17T18:37:49.937Z,7.53
2022-08-17T18:40:16.823Z,6.60
2022-08-17T18:42:58.324Z,6.63
2022-08-17T18:45:30.837Z,6.70
2022-08-17T18:47:57.417Z,6.93
2022-08-17T18:50:33.996Z,6.40
2022-08-17T18:53:26.694Z,6.93
2022-08-17T18:56:26.994Z,6.60
2022-08-17T18:58:57.648Z,7.13
2022-08-17T19:01:41.757Z,7.07
2022-08-17T19:04:34.094Z,6.43
2022-08-17T19:07:24.501Z,6.83
2022-08-17T19:10:17.324Z,6.75
2022-08-17T19:12:51.740Z,6.32
2022-08-17T19:15:24.830Z,6.32
2022-08-17T19:18:00.705Z,6.10
2022-08-17T19:20:50.246Z,6.53
2022-08-17T19:23:53.822Z,6.65
2022-08-17T19:26:53.662Z,6.88
2022-08-17T19:29:46.685Z,6.50
2022-08-17T19:32:16.827Z,7.35
2022-08-17T19:34:44.489Z,6.47
2022-08-17T19:37:16.780Z,6.63
2022-08-17T19:39:55.580Z,6.60
2022-08-17T19:42:42.479Z,6.53
2022-08-17T19:46:01.419Z,6.85
2022-08-17T19:48:48.323Z,6.17
2022-08-17T19:51:24.505Z,6.30
2022-08-17T19:54:10.494Z,7.43
2022-08-17T19:56:50.539Z,7.40
2022-08-17T19:59:26.099Z,6.20
2022-08-17T20:02:01.279Z,6.50
2022-08-17T20:04:32.270Z,5.63
2022-08-17T20:07:26.180Z,7.63
2022-08-17T20:10:06.947Z,6.03
2022-08-17T20:12:36.250Z,6.03
2022-08-17T20:15:10.291Z,6.30
2022-08-17T20:17:42.568Z,6.93
2022-08-17T20:20:20.263Z,6.35
2022-08-17T20:23:17.798Z,6.60
2022-08-17T20:25:53.526Z,6.45
2022-08-17T20:28:35.030Z,7.07
2022-08-17T20:31:02.722Z,6.27
2022-08-17T20:33:37.978Z,6.78
2022-08-17T20:36:22.745Z,6.38
2022-08-17T20:38:55.890Z,6.28
2022-08-17T20:41:27.902Z,6.85
2022-08-17T20:43:57.208Z,7.10
2022-08-17T20:46:28.729Z,6.30
2022-08-17T20:49:14.010Z,6.88
2022-08-17T20:52:07.847Z,7.25
2022-08-17T20:54:52.813Z,6.75
2022-08-17T20:57:34.402Z,7.13
2022-08-17T21:00:17.601Z,6.10
2022-08-17T21:02:46.694Z,6.32
2022-08-17T21:05:32.481Z,6.57
2022-08-17T21:08:16.203Z,6.82
2022-08-17T21:10:45.508Z,6.43
2022-08-17T21:13:13.866Z,6.60
2022-08-17T21:15:41.910Z,6.53
2022-08-17T21:18:38.611Z,7.70
2022-08-17T21:21:48.456Z,7.50
2022-08-17T21:24:39.276Z,6.85
2022-08-17T21:27:21.021Z,6.70
2022-08-17T21:30:13.174Z,6.55
2022-08-17T21:32:42.013Z,6.75
2022-08-17T21:35:17.599Z,6.55
2022-08-17T21:37:46.196Z,6.80
2022-08-17T21:40:12.836Z,6.80
2022-08-17T21:42:53.850Z,6.90
2022-08-17T21:45:36.843Z,6.53
2022-08-17T21:48:20.572Z,6.63
2022-08-17T21:50:59.364Z,8.05
2022-08-17T21:53:38.105Z,8.43
2022-08-17T21:56:06.390Z,7.55
2022-08-17T21:58:40.339Z,8.77
2022-08-17T22:01:13.030Z,10.00
2022-08-17T22:03:47.598Z,9.63
2022-08-17T22:06:54.225Z,8.40
2022-08-17T22:09:44.919Z,7.72
2022-08-17T22:12:22.734Z,7.63
2022-08-17T22:15:07.472Z,7.45
2022-08-17T22:17:38.733Z,7.45
2022-08-17T22:20:12.066Z,7.50
2022-08-17T22:23:19.600Z,7.57
2022-08-17T22:26:09.578Z,7.28
2022-08-17T22:28:49.282Z,7.43
2022-08-17T22:31:28.466Z,7.00
2022-08-17T22:33:59.747Z,7.30
2022-08-17T22:36:37.191Z,7.35
2022-08-17T22:39:09.685Z,7.32
2022-08-17T22:41:59.002Z,7.55
2022-08-17T22:44:36.516Z,6.95
2022-08-17T22:47:11.479Z,7.10
2022-08-17T22:49:57.944Z,7.40
2022-08-17T22:52:34.406Z,6.97
2022-08-17T22:55:37.641Z,7.10
2022-08-17T22:58:30.627Z,7.03
2022-08-17T23:01:17.109Z,7.27
2022-08-17T23:03:57.506Z,6.95
2022-08-17T23:06:24.483Z,6.63
2022-08-17T23:08:56.318Z,7.15
2022-08-17T23:11:36.698Z,6.65
2022-08-17T23:14:18.364Z,6.90
2022-08-17T23:16:45.392Z,7.30
2022-08-17T23:19:15.369Z,7.25
2022-08-17T23:21:44.859Z,7.20
2022-08-17T23:24:17.045Z,7.45
2022-08-17T23:26:43.568Z,7.33
2022-08-17T23:29:10.150Z,7.25
2022-08-17T23:31:38.590Z,7.78
2022-08-17T23:34:09.349Z,7.70
2022-08-17T23:36:36.202Z,8.07
2022-08-17T23:39:03.250Z,7.90
2022-08-17T23:41:33.642Z,8.00
2022-08-17T23:44:01.153Z,7.40
2022-08-17T23:46:27.689Z,7.85
2022-08-17T23:48:54.299Z,8.13
2022-08-17T23:51:27.340Z,9.03
2022-08-17T23:53:58.184Z,8.52
2022-08-17T23:56:25.742Z,8.75
2022-08-17T23:58:54.833Z,9.35
